Time;durP1;ratioP1;P1;durP2;ratioP2;P2;SDS_P1;SDS_P2;PMS_P1;PMS_P2;Temp;Humidity;BMP_temperature;BMP_pressure;BME280_temperature;BME280_humidity;BME280_pressure;Samples;Min_cycle;Max_cycle;Signal;HPM_P1;HPM_P2
2023/04/24 00:02:22;;;;;;;8.05;4.82;;;;;;;10.01;87.52;99950.13;5108371;28;20032;-32
2023/04/24 00:04:48;;;;;;;7.95;5.03;;;;;;;10.24;86.84;99954.88;5108240;28;20063;-32
2023/04/24 00:07:16;;;;;;;8.98;4.70;;;;;;;10.17;86.97;99964.75;5108215;28;20044;-33
2023/04/24 00:09:43;;;;;;;9.50;4.72;;;;;;;10.02;87.20;99962.44;5108192;28;20034;-34
2023/04/24 00:12:09;;;;;;;8.75;5.30;;;;;;;10.20;86.12;99959.00;5107802;28;20582;-34
2023/04/24 00:14:35;;;;;;;9.95;5.20;;;;;;;10.06;86.05;99948.47;5108117;27;20031;-34
2023/04/24 00:17:02;;;;;;;8.18;4.80;;;;;;;9.80;89.04;99948.66;5107977;28;20424;-33
2023/04/24 00:19:28;;;;;;;8.90;5.07;;;;;;;9.92;88.41;99952.25;5108267;27;20016;-34
2023/04/24 00:21:54;;;;;;;9.30;5.03;;;;;;;10.04;87.96;99950.53;5108003;28;20028;-33
2023/04/24 00:24:20;;;;;;;9.10;4.97;;;;;;;10.14;87.39;99958.03;5107543;28;20034;-33
2023/04/24 00:26:45;;;;;;;13.38;5.97;;;;;;;10.43;85.67;99953.06;5103337;28;20019;-33
2023/04/24 00:29:11;;;;;;;9.93;5.47;;;;;;;10.26;86.03;99958.13;5106579;28;20463;-33
2023/04/24 00:31:36;;;;;;;10.75;5.85;;;;;;;10.36;85.20;99958.47;5106395;28;20063;-33
2023/04/24 00:34:03;;;;;;;10.52;5.93;;;;;;;10.39;84.77;99968.69;5102804;28;20031;-35
2023/04/24 00:36:28;;;;;;;9.52;5.30;;;;;;;9.71;87.95;99968.63;5100946;28;20058;-33
2023/04/24 00:38:55;;;;;;;9.82;6.57;;;;;;;9.53;89.42;99964.81;5106239;28;20051;-33
2023/04/24 00:41:21;;;;;;;10.52;6.75;;;;;;;9.69;89.21;99955.50;5107344;28;20031;-34
2023/04/24 00:43:47;;;;;;;9.07;6.75;;;;;;;9.85;88.22;99960.31;5107505;28;20024;-33
2023/04/24 00:46:13;;;;;;;8.57;5.85;;;;;;;9.41;90.29;99951.38;5107295;28;20077;-33
2023/04/24 00:48:39;;;;;;;10.90;7.03;;;;;;;9.23;93.45;99949.47;5107563;28;20027;-33
2023/04/24 00:51:04;;;;;;;9.10;5.65;;;;;;;9.24;92.05;99932.44;5107167;28;20026;-33
2023/04/24 00:53:30;;;;;;;9.55;5.53;;;;;;;9.34;92.36;99931.19;5107248;28;20063;-33
2023/04/24 00:55:56;;;;;;;11.55;6.38;;;;;;;9.57;91.60;99944.72;5107126;28;20038;-35
2023/04/24 00:58:22;;;;;;;12.23;5.80;;;;;;;9.40;92.14;99917.00;5107314;28;20027;-33
2023/04/24 01:00:52;;;;;;;11.40;6.03;;;;;;;9.38;92.13;99941.19;5107129;27;20026;-34
2023/04/24 01:03:20;;;;;;;9.80;5.43;;;;;;;9.27;93.25;99939.19;5106975;28;20132;-33
2023/04/24 01:05:46;;;;;;;8.70;5.60;;;;;;;9.46;92.00;99937.44;5107222;28;20599;-33
2023/04/24 01:08:11;;;;;;;9.65;5.63;;;;;;;9.20;92.76;99939.22;5106673;28;20161;-34
2023/04/24 01:10:40;;;;;;;10.52;5.78;;;;;;;9.07;92.27;99928.63;5106854;28;20047;-34
2023/04/24 01:13:07;;;;;;;9.13;5.15;;;;;;;9.44;91.04;99940.31;5106966;28;20464;-34
2023/04/24 01:15:33;;;;;;;11.07;6.05;;;;;;;9.36;91.53;99943.22;5107005;28;20034;-33
2023/04/24 01:17:58;;;;;;;9.18;6.05;;;;;;;9.39;91.05;99952.63;5106870;28;20023;-33
2023/04/24 01:20:26;;;;;;;11.75;6.30;;;;;;;9.29;92.18;99946.97;5106850;28;20034;-33
2023/04/24 01:22:51;;;;;;;10.13;5.10;;;;;;;9.09;92.74;99944.38;5106684;28;20485;-33
2023/04/24 01:25:17;;;;;;;10.77;6.50;;;;;;;8.99;93.18;99920.91;5106850;28;20106;-34
2023/04/24 01:27:43;;;;;;;8.25;5.03;;;;;;;8.74;93.60;99908.31;5106701;28;20741;-33
2023/04/24 01:30:09;;;;;;;10.68;5.90;;;;;;;9.05;92.81;99941.31;5106814;28;20913;-33
2023/04/24 01:32:36;;;;;;;10.35;6.05;;;;;;;8.78;93.73;99946.75;5106509;28;20070;-34
2023/04/24 01:35:02;;;;;;;12.07;5.95;;;;;;;8.85;93.90;99944.91;5106568;28;20031;-33
2023/04/24 01:37:27;;;;;;;8.35;5.47;;;;;;;8.89;93.76;99942.66;5106400;28;20040;-33
2023/04/24 01:39:53;;;;;;;10.25;6.10;;;;;;;8.80;94.10;99944.69;5106558;28;20038;-34
2023/04/24 01:42:19;;;;;;;12.30;6.22;;;;;;;8.72;95.29;99942.28;5106390;28;20032;-33
2023/04/24 01:44:44;;;;;;;9.55;6.30;;;;;;;9.33;92.88;99937.50;5106502;28;20133;-33
2023/04/24 01:47:10;;;;;;;9.18;6.20;;;;;;;9.24;91.67;99934.28;5105297;28;20031;-34
2023/04/24 01:49:38;;;;;;;10.15;5.97;;;;;;;8.93;93.39;99932.38;5106089;28;20028;-34
2023/04/24 01:52:03;;;;;;;10.10;5.30;;;;;;;9.08;92.93;99929.47;5106297;28;20779;-33
2023/04/24 01:54:29;;;;;;;9.82;6.05;;;;;;;9.21;91.91;99935.53;5106063;28;20023;-32
2023/04/24 01:56:54;;;;;;;9.73;6.32;;;;;;;9.71;90.29;99939.34;5106598;28;20504;-34
2023/04/24 01:59:20;;;;;;;10.10;5.63;;;;;;;9.60;89.84;99949.66;5106258;28;20111;-33
2023/04/24 02:01:46;;;;;;;11.52;6.32;;;;;;;9.51;87.58;99937.59;5106399;28;20042;-33
2023/04/24 02:04:11;;;;;;;8.80;5.30;;;;;;;8.82;91.84;99963.94;5106163;28;20031;-35
2023/04/24 02:06:37;;;;;;;9.68;5.85;;;;;;;8.95;90.70;99946.28;5105999;28;20028;-33
2023/04/24 02:09:03;;;;;;;10.77;6.22;;;;;;;9.01;91.14;99956.91;5105714;28;20039;-33
2023/04/24 02:11:28;;;;;;;11.13;6.35;;;;;;;9.18;89.24;99949.25;5105971;28;20072;-33
2023/04/24 02:13:54;;;;;;;10.82;5.85;;;;;;;9.06;89.79;99935.00;5106145;28;20032;-34
2023/04/24 02:16:19;;;;;;;9.60;5.90;;;;;;;8.99;89.22;99947.50;5105641;28;20099;-34
2023/04/24 02:18:45;;;;;;;13.45;6.35;;;;;;;8.98;89.55;99951.19;5106516;28;20015;-33
2023/04/24 02:21:10;;;;;;;9.65;6.07;;;;;;;8.76;90.79;99958.63;5112329;28;20046;-33
2023/04/24 02:23:36;;;;;;;11.55;6.10;;;;;;;8.79;90.47;99959.03;5112746;27;20141;-33
2023/04/24 02:26:02;;;;;;;9.27;6.00;;;;;;;8.83;90.89;99956.78;5112379;27;20349;-33
2023/04/24 02:28:27;;;;;;;11.02;6.05;;;;;;;9.01;90.54;99956.06;5112795;27;20030;-33
2023/04/24 02:30:53;;;;;;;10.15;5.97;;;;;;;9.04;90.03;99926.41;5112759;27;20655;-33
2023/04/24 02:33:18;;;;;;;14.38;6.50;;;;;;;8.60;92.88;99944.78;5104744;27;20028;-31
2023/04/24 02:35:44;;;;;;;8.02;6.25;;;;;;;7.84;94.83;99947.88;5104615;27;20050;-32
2023/04/24 02:38:09;;;;;;;9.75;5.55;;;;;;;7.96;94.14;99935.63;5112094;27;20036;-33
2023/04/24 02:40:35;;;;;;;8.98;6.00;;;;;;;7.51;95.98;99951.34;5112127;27;20034;-32
2023/04/24 02:43:00;;;;;;;11.20;6.18;;;;;;;7.69;94.92;99949.94;5111801;27;20055;-32
2023/04/24 02:45:25;;;;;;;8.98;6.07;;;;;;;7.50;96.40;99933.78;5111700;27;20024;-32
2023/04/24 02:47:51;;;;;;;17.10;10.20;;;;;;;7.20;98.56;99928.81;5104114;27;20511;-33
2023/04/24 02:50:16;;;;;;;10.32;5.68;;;;;;;6.84;100.00;99940.53;5111933;27;20469;-32
2023/04/24 02:52:42;;;;;;;9.07;5.38;;;;;;;6.58;100.00;99938.56;5112369;27;20027;-34
2023/04/24 02:55:08;;;;;;;14.65;6.15;;;;;;;6.63;100.00;99951.22;5112222;27;20031;-33
2023/04/24 02:57:33;;;;;;;11.90;5.70;;;;;;;6.91;100.00;99934.44;5112825;27;20024;-32
2023/04/24 02:59:59;;;;;;;11.93;5.97;;;;;;;7.22;100.00;99921.47;5112376;27;20029;-32
2023/04/24 03:02:25;;;;;;;12.20;6.53;;;;;;;7.16;100.00;99937.38;5112642;27;20081;-32
2023/04/24 03:04:50;;;;;;;26.40;11.95;;;;;;;7.07;100.00;99930.59;5112580;27;20397;-31
2023/04/24 03:07:16;;;;;;;33.95;21.48;;;;;;;7.08;100.00;99926.94;5112091;27;20797;-33
2023/04/24 03:09:41;;;;;;;10.65;6.75;;;;;;;6.89;100.00;99923.22;5112235;27;20089;-32
2023/04/24 03:12:06;;;;;;;9.27;6.28;;;;;;;6.80;100.00;99923.38;5112136;27;20025;-32
2023/04/24 03:14:32;;;;;;;8.55;6.60;;;;;;;6.63;100.00;99925.53;5112170;27;20496;-33
2023/04/24 03:16:59;;;;;;;10.95;6.60;;;;;;;6.53;100.00;99919.78;5112155;27;20042;-34
2023/04/24 03:19:25;;;;;;;10.52;6.85;;;;;;;6.35;100.00;99914.97;5112095;27;20031;-32
2023/04/24 03:21:50;;;;;;;12.38;7.57;;;;;;;6.30;100.00;99912.13;5112159;27;20032;-31
2023/04/24 03:24:15;;;;;;;12.55;8.23;;;;;;;6.18;100.00;99908.38;5112537;27;20589;-34
2023/04/24 03:26:41;;;;;;;13.48;7.60;;;;;;;6.35;100.00;99922.13;5111944;27;20024;-32
2023/04/24 03:29:07;;;;;;;14.50;8.00;;;;;;;6.49;100.00;99915.06;5112153;27;20498;-33
2023/04/24 03:31:32;;;;;;;11.95;7.95;;;;;;;6.48;100.00;99919.56;5108796;27;20032;-32
2023/04/24 03:33:58;;;;;;;14.10;8.57;;;;;;;6.62;100.00;99917.81;5108805;28;20533;-32
2023/04/24 03:36:23;;;;;;;10.45;8.15;;;;;;;6.57;100.00;99930.81;5108746;28;20478;-32
2023/04/24 03:38:48;;;;;;;13.82;9.98;;;;;;;6.75;100.00;99931.09;5108996;28;20702;-32
2023/04/24 03:41:14;;;;;;;13.40;9.95;;;;;;;6.67;100.00;99946.34;5108692;28;20474;-33
2023/04/24 03:43:40;;;;;;;11.70;8.75;;;;;;;6.54;100.00;99933.84;5108720;27;20031;-32
2023/04/24 03:46:05;;;;;;;14.65;9.32;;;;;;;6.79;100.00;99920.94;5108424;28;20023;-32
2023/04/24 03:48:31;;;;;;;14.13;8.98;;;;;;;7.17;100.00;99939.84;5108416;28;20031;-33
2023/04/24 03:50:56;;;;;;;14.25;10.20;;;;;;;7.01;100.00;99940.19;5108539;28;20048;-33
2023/04/24 03:53:21;;;;;;;11.98;8.70;;;;;;;6.95;100.00;99948.94;5108484;28;20412;-32
2023/04/24 03:55:47;;;;;;;17.30;9.27;;;;;;;6.76;100.00;99937.22;5108397;28;20036;-32
2023/04/24 03:58:15;;;;;;;11.95;8.77;;;;;;;6.80;100.00;99949.91;5108430;28;20443;-32
2023/04/24 04:00:41;;;;;;;14.02;8.07;;;;;;;6.90;100.00;99949.50;5108793;28;20173;-33
2023/04/24 04:03:06;;;;;;;13.40;8.20;;;;;;;6.72;100.00;99951.88;5108398;28;20480;-32
2023/04/24 04:05:32;;;;;;;14.18;8.57;;;;;;;6.70;100.00;99957.41;5108357;28;20031;-32
2023/04/24 04:07:57;;;;;;;11.15;7.97;;;;;;;6.53;100.00;99948.91;5108181;28;20486;-31
2023/04/24 04:10:23;;;;;;;11.05;7.57;;;;;;;6.59;100.00;99960.56;5108106;28;20484;-32
2023/04/24 04:12:48;;;;;;;11.25;7.97;;;;;;;7.36;100.00;99959.47;5107918;27;20035;-31
2023/04/24 04:15:13;;;;;;;11.27;7.80;;;;;;;7.59;100.00;99952.97;5107910;28;20057;-31
2023/04/24 04:17:39;;;;;;;13.65;8.43;;;;;;;7.99;100.00;99975.06;5108481;27;20022;-32
2023/04/24 04:20:14;;;;;;;13.07;8.27;;;;;;;8.29;100.00;99985.28;5107689;28;20425;-32
2023/04/24 04:22:40;;;;;;;11.68;8.25;;;;;;;8.39;100.00;99985.66;5107845;28;20037;-33
2023/04/24 04:25:06;;;;;;;13.07;8.20;;;;;;;8.36;100.00;99986.09;5108065;28;20023;-33
2023/04/24 04:27:32;;;;;;;13.73;8.27;;;;;;;8.24;100.00;99985.09;5107964;28;20080;-31
2023/04/24 04:30:04;;;;;;;13.25;8.82;;;;;;;8.17;100.00;99987.75;5108053;28;20024;-31
2023/04/24 04:32:33;;;;;;;11.45;7.72;;;;;;;8.30;100.00;99981.59;5107269;28;20054;-32
2023/04/24 04:35:02;;;;;;;15.07;8.70;;;;;;;8.33;100.00;99980.38;5107717;28;20063;-32
2023/04/24 04:37:28;;;;;;;12.35;7.90;;;;;;;8.46;100.00;99980.41;5107845;28;20040;-32
2023/04/24 04:39:53;;;;;;;12.90;8.52;;;;;;;8.71;100.00;99971.75;5107364;28;20035;-33
2023/04/24 04:42:19;;;;;;;11.73;7.93;;;;;;;9.05;100.00;99967.94;5107505;28;20419;-32
2023/04/24 04:44:45;;;;;;;12.48;7.90;;;;;;;9.00;100.00;99981.06;5107430;28;20081;-31
2023/04/24 04:47:11;;;;;;;13.10;7.90;;;;;;;9.19;100.00;99979.34;5099828;27;20035;-33
2023/04/24 04:49:38;;;;;;;12.55;7.95;;;;;;;9.33;100.00;99980.91;5097125;27;20028;-32
2023/04/24 04:52:03;;;;;;;14.02;9.10;;;;;;;9.45;100.00;99983.72;5103259;28;20028;-33
2023/04/24 04:54:29;;;;;;;13.25;8.30;;;;;;;9.63;99.95;99991.81;5106835;27;20471;-32
2023/04/24 04:56:55;;;;;;;14.45;9.65;;;;;;;9.73;100.00;99990.53;5107000;28;20037;-32
2023/04/24 04:59:20;;;;;;;17.05;9.93;;;;;;;9.93;100.00;99991.19;5107481;28;20471;-32
2023/04/24 05:01:46;;;;;;;17.33;9.55;;;;;;;10.13;99.79;99988.34;5107087;28;20814;-32
2023/04/24 05:04:11;;;;;;;16.00;9.63;;;;;;;10.36;98.38;99993.13;5106939;28;20024;-34
2023/04/24 05:06:37;;;;;;;15.63;8.70;;;;;;;10.34;98.43;99989.88;5106874;28;20035;-32
2023/04/24 05:09:03;;;;;;;11.77;8.45;;;;;;;10.67;96.48;99993.25;5106489;28;20046;-32
2023/04/24 05:11:29;;;;;;;11.18;8.23;;;;;;;10.41;95.62;99971.94;5106348;28;20012;-32
2023/04/24 05:13:55;;;;;;;17.50;9.82;;;;;;;10.39;97.53;99978.53;5106398;28;20027;-33
2023/04/24 05:16:20;;;;;;;12.55;8.82;;;;;;;10.58;94.74;99987.38;5106439;28;20026;-33
2023/04/24 05:18:45;;;;;;;15.23;9.88;;;;;;;10.26;94.60;99969.59;5106480;28;20102;-32
2023/04/24 05:21:11;;;;;;;16.15;9.13;;;;;;;10.42;94.37;99968.25;5106569;28;20024;-32
2023/04/24 05:23:36;;;;;;;15.65;9.52;;;;;;;10.69;94.54;99978.66;5105987;28;20019;-34
2023/04/24 05:26:02;;;;;;;15.57;9.60;;;;;;;10.82;92.15;99981.16;5106740;28;20042;-32
2023/04/24 05:28:30;;;;;;;23.77;9.40;;;;;;;11.16;90.00;99986.94;5106221;28;20401;-34
2023/04/24 05:30:56;;;;;;;13.93;8.77;;;;;;;10.66;90.88;99987.09;5106151;28;20024;-32
2023/04/24 05:33:22;;;;;;;12.75;8.50;;;;;;;10.26;92.43;99974.13;5105864;28;20027;-32
2023/04/24 05:35:48;;;;;;;14.82;9.48;;;;;;;10.93;90.43;99990.31;5106488;28;20034;-32
2023/04/24 05:38:14;;;;;;;13.77;8.60;;;;;;;10.83;89.93;99982.00;5106058;28;20020;-33
2023/04/24 05:40:39;;;;;;;14.35;8.40;;;;;;;10.53;91.80;99984.56;5105983;28;20107;-32
2023/04/24 05:43:05;;;;;;;16.27;9.15;;;;;;;10.60;92.83;99986.13;5105878;28;20118;-33
2023/04/24 05:45:31;;;;;;;14.95;9.50;;;;;;;10.59;94.39;99973.81;5105670;28;20495;-32
2023/04/24 05:47:57;;;;;;;14.63;9.00;;;;;;;10.92;91.70;99966.50;5106056;28;20019;-32
2023/04/24 05:50:22;;;;;;;13.85;8.88;;;;;;;10.97;91.95;99974.63;5105903;28;20080;-32
2023/04/24 05:52:48;;;;;;;15.75;9.30;;;;;;;11.14;93.33;99965.00;5105689;28;20027;-33
2023/04/24 05:55:13;;;;;;;15.43;8.93;;;;;;;11.12;92.74;99977.75;5105167;28;20032;-32
2023/04/24 05:57:39;;;;;;;15.02;9.20;;;;;;;11.11;96.43;99965.44;5105059;28;20019;-32
2023/04/24 06:00:05;;;;;;;14.05;8.38;;;;;;;11.22;92.93;99972.69;5105686;28;20534;-32
2023/04/24 06:02:32;;;;;;;17.35;8.55;;;;;;;11.14;93.75;99970.34;5102552;28;20123;-33
2023/04/24 06:04:59;;;;;;;13.02;8.10;;;;;;;11.14;93.76;99970.34;5106685;28;20072;-32
2023/04/24 06:07:28;;;;;;;13.45;8.73;;;;;;;11.36;92.57;99975.16;5105856;28;20051;-33
2023/04/24 06:09:53;;;;;;;12.02;7.85;;;;;;;11.31;91.79;99975.03;5106045;28;20593;-32
2023/04/24 06:12:19;;;;;;;14.95;8.88;;;;;;;11.38;91.54;99970.41;5106154;28;20028;-32
2023/04/24 06:14:44;;;;;;;15.07;7.55;;;;;;;11.38;91.85;99973.09;5105998;28;20479;-33
2023/04/24 06:17:09;;;;;;;15.05;8.55;;;;;;;11.48;93.58;99969.88;5112919;28;20472;-32
2023/04/24 06:19:35;;;;;;;14.13;9.38;;;;;;;11.26;93.34;99968.53;5117692;28;20256;-34
2023/04/24 06:22:00;;;;;;;14.80;9.60;;;;;;;11.45;92.96;99960.47;5105995;28;20381;-32
2023/04/24 06:24:29;;;;;;;17.55;9.60;;;;;;;11.63;94.35;99956.94;5106027;28;20023;-32
2023/04/24 06:26:56;;;;;;;14.32;9.05;;;;;;;11.92;90.07;99949.94;5107725;28;20065;-32
2023/04/24 06:29:21;;;;;;;12.77;8.15;;;;;;;11.50;93.14;99959.78;5126380;27;20015;-32
2023/04/24 06:31:47;;;;;;;16.35;9.35;;;;;;;11.87;93.37;99952.47;5113421;28;20034;-33
2023/04/24 06:34:12;;;;;;;14.30;8.68;;;;;;;12.08;91.08;99955.66;5105420;28;20023;-32
2023/04/24 06:36:38;;;;;;;15.93;9.10;;;;;;;12.31;90.89;99963.66;5105332;28;20037;-33
2023/04/24 06:39:04;;;;;;;13.05;8.52;;;;;;;12.26;90.37;99955.53;5105631;28;20094;-32
2023/04/24 06:41:29;;;;;;;14.38;7.95;;;;;;;12.62;88.65;99942.94;5105116;28;20027;-32
2023/04/24 06:43:55;;;;;;;11.23;7.80;;;;;;;13.10;88.33;99952.50;5105364;28;20024;-33
2023/04/24 06:46:25;;;;;;;16.10;8.60;;;;;;;12.94;88.79;99955.91;5105376;28;20408;-33
2023/04/24 06:48:57;;;;;;;14.80;8.05;;;;;;;12.82;86.80;99964.78;5101990;28;20413;-32
2023/04/24 06:51:23;;;;;;;12.80;7.88;;;;;;;13.07;86.30;99955.63;5106454;28;20026;-32
2023/04/24 06:53:49;;;;;;;13.82;7.90;;;;;;;12.88;89.14;99962.22;5105227;28;20059;-32
2023/04/24 06:56:15;;;;;;;12.52;7.45;;;;;;;12.83;88.18;99960.22;5105122;28;20023;-32
2023/04/24 06:58:41;;;;;;;12.88;7.72;;;;;;;13.07;88.41;99963.66;5105802;28;20030;-32
2023/04/24 07:01:07;;;;;;;13.50;8.27;;;;;;;13.01;87.00;99964.63;5105401;28;20081;-31
2023/04/24 07:03:32;;;;;;;13.13;7.80;;;;;;;13.18;90.12;99960.16;5104171;28;20031;-33
2023/04/24 07:05:57;;;;;;;14.35;8.23;;;;;;;13.76;87.77;99958.25;5106547;28;20035;-31
2023/04/24 07:08:23;;;;;;;15.20;10.40;;;;;;;14.06;85.53;99955.28;5109444;28;20503;-32
2023/04/24 07:10:50;;;;;;;14.50;9.95;;;;;;;14.01;82.80;99954.38;5109504;28;20037;-32
2023/04/24 07:13:16;;;;;;;20.23;12.95;;;;;;;14.19;84.75;99956.78;5109491;28;20023;-32
2023/04/24 07:15:42;;;;;;;13.60;8.48;;;;;;;14.32;84.83;99955.63;5109029;28;20088;-32
2023/04/24 07:18:08;;;;;;;13.90;9.85;;;;;;;14.44;82.83;99963.59;5110847;27;20019;-32
2023/04/24 07:20:34;;;;;;;18.27;11.00;;;;;;;14.05;84.22;99950.13;5126529;27;20498;-32
2023/04/24 07:22:59;;;;;;;16.90;12.05;;;;;;;13.80;87.37;99947.88;5129236;27;20031;-32
2023/04/24 07:25:25;;;;;;;12.65;8.77;;;;;;;14.01;86.85;99949.81;5129833;27;20031;-32
2023/04/24 07:27:50;;;;;;;12.85;8.55;;;;;;;13.96;85.45;99952.44;5129508;27;20033;-33
2023/04/24 07:30:16;;;;;;;13.95;8.85;;;;;;;14.06;85.86;99952.59;5128199;27;20030;-33
2023/04/24 07:32:41;;;;;;;13.20;8.25;;;;;;;13.64;86.75;99950.28;5122513;27;20038;-32
2023/04/24 07:35:09;;;;;;;12.80;7.93;;;;;;;13.50;86.99;99948.97;5115732;27;20665;-33
2023/04/24 07:37:34;;;;;;;13.15;8.10;;;;;;;13.36;89.52;99953.00;5119439;27;20038;-34
2023/04/24 07:40:00;;;;;;;17.17;9.65;;;;;;;13.44;87.65;99952.59;5107080;28;20028;-33
2023/04/24 07:42:25;;;;;;;16.92;8.93;;;;;;;13.58;89.68;99951.25;5108634;27;20041;-32
2023/04/24 07:44:51;;;;;;;13.57;9.45;;;;;;;13.60;88.35;99945.66;5108540;28;20027;-33
2023/04/24 07:47:16;;;;;;;13.82;8.60;;;;;;;14.05;89.10;99944.78;5109097;28;20038;-33
2023/04/24 07:49:42;;;;;;;12.80;8.13;;;;;;;14.49;85.47;99952.13;5108196;28;20020;-32
2023/04/24 07:52:08;;;;;;;11.23;7.93;;;;;;;14.77;84.04;99957.38;5108521;28;20020;-32
2023/04/24 07:54:33;;;;;;;17.80;9.90;;;;;;;15.37;84.55;99944.88;5108502;28;20055;-32
2023/04/24 07:57:00;;;;;;;12.50;8.07;;;;;;;15.77;81.65;99958.97;5108695;28;20020;-33
2023/04/24 07:59:25;;;;;;;14.20;8.43;;;;;;;15.43;79.88;99956.50;5108464;28;20468;-32
2023/04/24 08:01:51;;;;;;;14.32;7.60;;;;;;;15.07;80.32;99966.84;5108699;28;20099;-33
2023/04/24 08:04:17;;;;;;;9.98;7.68;;;;;;;15.66;77.82;99961.56;5108615;28;20066;-35
2023/04/24 08:06:43;;;;;;;12.43;7.13;;;;;;;15.79;77.03;99965.75;5108330;28;20459;-32
2023/04/24 08:09:09;;;;;;;11.38;7.20;;;;;;;16.01;76.63;99946.81;5108064;28;20047;-33
2023/04/24 08:11:34;;;;;;;11.52;7.15;;;;;;;16.32;78.27;99952.41;5107995;28;20127;-32
2023/04/24 08:13:59;;;;;;;9.55;6.50;;;;;;;16.57;73.16;99957.16;5108640;28;20035;-32
2023/04/24 08:16:25;;;;;;;11.27;6.65;;;;;;;16.92;73.00;99957.56;5107777;28;20408;-33
2023/04/24 08:18:52;;;;;;;10.70;6.55;;;;;;;16.92;70.27;99960.28;5107665;28;20417;-33
2023/04/24 08:21:18;;;;;;;12.82;6.60;;;;;;;16.82;68.94;99963.75;5107901;28;20038;-33
2023/04/24 08:23:45;;;;;;;9.35;6.30;;;;;;;17.16;69.50;99964.16;5108080;28;20024;-34
2023/04/24 08:26:11;;;;;;;11.43;6.65;;;;;;;17.66;67.44;99962.63;5107953;28;20543;-32
2023/04/24 08:28:37;;;;;;;11.30;6.30;;;;;;;17.26;65.91;99953.41;5115127;27;20019;-33
2023/04/24 08:31:03;;;;;;;15.20;6.80;;;;;;;17.42;67.71;99953.41;5114103;27;20037;-33
2023/04/24 08:33:33;;;;;;;9.27;6.38;;;;;;;17.57;68.92;99937.28;5121008;27;20035;-33
2023/04/24 08:36:00;;;;;;;10.65;7.20;;;;;;;17.70;68.38;99916.25;5113835;27;20036;-33
2023/04/24 08:38:26;;;;;;;9.80;6.60;;;;;;;17.53;68.42;99936.19;5117045;27;20029;-33
2023/04/24 08:40:52;;;;;;;12.77;6.65;;;;;;;17.63;66.28;99922.72;5119929;27;20027;-32
2023/04/24 08:43:18;;;;;;;11.07;6.90;;;;;;;17.73;65.37;99918.41;5117713;27;20117;-34
2023/04/24 08:45:44;;;;;;;10.68;6.22;;;;;;;17.33;65.10;99920.00;5115062;27;20102;-33
2023/04/24 08:48:09;;;;;;;8.35;6.60;;;;;;;17.48;67.99;99907.31;5117414;27;20050;-33
2023/04/24 08:50:36;;;;;;;10.15;6.50;;;;;;;17.71;67.32;99898.97;5115542;27;20691;-33
2023/04/24 08:53:02;;;;;;;12.43;6.70;;;;;;;18.00;64.21;99904.66;5121511;27;20084;-34
2023/04/24 08:55:30;;;;;;;11.40;6.28;;;;;;;17.83;66.43;99891.44;5115234;27;20036;-33
2023/04/24 08:57:56;;;;;;;;;;;;;;;17.98;62.94;99888.75;5105914;27;20394;-33
2023/04/24 09:00:21;;;;;;;7.93;5.97;;;;;;;17.81;63.03;99896.28;5117795;27;19985;-33
2023/04/24 09:02:49;;;;;;;8.98;6.38;;;;;;;18.16;62.74;99894.63;5114010;27;20039;-33
2023/04/24 09:05:18;;;;;;;8.85;6.60;;;;;;;18.32;65.49;99874.63;5117303;27;20036;-33
2023/04/24 09:07:48;;;;;;;9.15;6.05;;;;;;;18.60;60.21;99873.16;5118533;27;20123;-33
2023/04/24 09:10:16;;;;;;;9.18;5.85;;;;;;;18.67;57.28;99889.91;5127443;27;20027;-32
2023/04/24 09:12:42;;;;;;;10.63;6.55;;;;;;;19.13;58.97;99880.75;5121051;27;20057;-33
2023/04/24 09:15:08;;;;;;;10.75;6.68;;;;;;;18.80;59.82;99877.72;5113445;27;20039;-32
2023/04/24 09:17:35;;;;;;;12.88;6.47;;;;;;;19.33;57.63;99877.13;5108947;27;20066;-33
2023/04/24 09:20:00;;;;;;;14.10;5.80;;;;;;;19.40;57.20;99884.91;5122987;27;20067;-33
2023/04/24 09:22:29;;;;;;;8.88;5.95;;;;;;;19.36;55.66;99863.03;5113048;27;20394;-33
2023/04/24 09:25:07;;;;;;;10.05;6.03;;;;;;;19.39;57.21;99857.06;5108803;27;20049;-34
2023/04/24 09:27:33;;;;;;;8.43;6.05;;;;;;;19.79;54.82;99867.84;5112286;27;20020;-32
2023/04/24 09:30:00;;;;;;;6.75;4.47;;;;;;;19.25;48.83;99865.00;5108373;27;20023;-32
2023/04/24 09:32:27;;;;;;;9.15;5.68;;;;;;;19.77;53.65;99849.19;5114742;27;20144;-33
2023/04/24 09:35:13;;;;;;;10.77;5.20;;;;;;;19.91;54.41;99862.06;5109107;27;20496;-32
2023/04/24 09:37:44;;;;;;;7.82;5.20;;;;;;;19.79;53.46;99852.41;5117387;27;20028;-34
2023/04/24 09:40:15;;;;;;;7.30;5.30;;;;;;;19.79;51.34;99846.19;5106541;28;20027;-32
2023/04/24 09:42:46;;;;;;;8.07;5.20;;;;;;;20.32;48.88;99854.28;5111860;27;20031;-32
2023/04/24 09:45:12;;;;;;;8.00;5.53;;;;;;;20.81;47.91;99847.72;5121328;27;20098;-33
2023/04/24 09:47:38;;;;;;;7.90;5.65;;;;;;;21.00;47.27;99841.50;5126765;27;20113;-32
2023/04/24 09:50:15;;;;;;;9.50;5.90;;;;;;;20.24;50.15;99844.09;5124788;27;20031;-33
2023/04/24 09:52:45;;;;;;;9.88;5.68;;;;;;;20.52;52.45;99841.59;5115585;27;20055;-33
2023/04/24 09:55:21;;;;;;;10.32;5.40;;;;;;;20.86;48.88;99841.41;5106428;28;20526;-35
2023/04/24 09:57:54;;;;;;;9.07;5.38;;;;;;;20.90;51.09;99817.25;5111670;27;20080;-33
2023/04/24 10:00:30;;;;;;;8.15;5.57;;;;;;;20.85;46.30;99842.53;5127282;27;20046;-32
2023/04/24 10:02:56;;;;;;;9.13;4.97;;;;;;;21.09;47.99;99831.63;5126407;27;20539;-32
2023/04/24 10:05:27;;;;;;;8.85;5.53;;;;;;;21.03;48.51;99832.78;5126124;27;20075;-32
2023/04/24 10:07:57;;;;;;;8.80;5.32;;;;;;;21.07;49.18;99817.56;5111922;27;20072;-33
2023/04/24 10:10:23;;;;;;;8.13;5.40;;;;;;;21.45;49.53;99817.50;5106346;28;20026;-33
2023/04/24 10:12:50;;;;;;;8.13;5.45;;;;;;;21.37;47.36;99821.69;5106416;28;20408;-33
2023/04/24 10:15:20;;;;;;;;;;;;;;;21.71;47.33;99822.50;5106600;28;20062;-32
2023/04/24 10:17:51;;;;;;;6.80;5.03;;;;;;;22.20;44.14;99815.59;5106089;28;19922;-34
2023/04/24 10:20:18;;;;;;;9.02;5.13;;;;;;;21.76;45.44;99806.09;5106002;28;20043;-33
2023/04/24 10:22:49;;;;;;;10.10;5.30;;;;;;;22.10;45.66;99804.94;5105726;28;20032;-32
2023/04/24 10:25:17;;;;;;;6.70;4.53;;;;;;;21.84;43.71;99795.38;5106017;28;20066;-32
2023/04/24 10:27:43;;;;;;;6.65;4.55;;;;;;;22.03;45.43;99806.13;5105954;28;20484;-35
2023/04/24 10:30:12;;;;;;;14.52;5.07;;;;;;;21.83;46.16;99793.75;5105944;28;20031;-33
2023/04/24 10:32:37;;;;;;;7.93;4.63;;;;;;;22.43;44.09;99803.72;5105903;28;20487;-33
2023/04/24 10:35:03;;;;;;;7.05;4.47;;;;;;;22.52;42.83;99803.81;5105421;28;20496;-32
2023/04/24 10:37:36;;;;;;;12.23;5.93;;;;;;;22.50;45.19;99797.09;5106081;28;20035;-32
2023/04/24 10:40:02;;;;;;;8.32;4.88;;;;;;;22.39;42.24;99805.44;5105823;28;20043;-33
2023/04/24 10:42:28;;;;;;;7.75;4.28;;;;;;;22.25;46.54;99801.91;5109662;28;20033;-34
2023/04/24 10:44:54;;;;;;;6.57;4.07;;;;;;;22.50;42.83;99797.09;5109938;28;20059;-33
2023/04/24 10:47:19;;;;;;;6.20;4.13;;;;;;;23.00;42.69;99794.28;5108738;27;20049;-34
2023/04/24 10:49:45;;;;;;;8.43;4.80;;;;;;;22.89;42.91;99801.09;5108791;27;20020;-32
2023/04/24 10:52:11;;;;;;;8.50;4.88;;;;;;;22.94;45.53;99795.53;5089445;28;20471;-33
2023/04/24 10:54:47;;;;;;;8.88;4.80;;;;;;;23.20;41.07;99796.56;5089265;28;20024;-34
2023/04/24 10:57:22;;;;;;;7.07;4.90;;;;;;;23.69;41.28;99799.41;5089612;28;20047;-33
2023/04/24 10:59:49;;;;;;;7.93;4.90;;;;;;;23.84;41.62;99798.22;5089366;28;20516;-32
2023/04/24 11:02:15;;;;;;;6.30;4.88;;;;;;;23.31;41.36;99790.84;5089270;28;20031;-33
2023/04/24 11:04:42;;;;;;;6.90;4.72;;;;;;;23.06;42.35;99788.44;5089423;28;20051;-33
2023/04/24 11:07:10;;;;;;;8.73;5.18;;;;;;;23.27;41.62;99783.34;5088939;28;20043;-32
2023/04/24 11:09:36;;;;;;;10.25;5.07;;;;;;;23.50;43.57;99780.56;5089161;28;20024;-32
2023/04/24 11:12:11;;;;;;;7.10;4.78;;;;;;;22.96;41.28;99779.72;5089360;28;20032;-32
2023/04/24 11:14:55;;;;;;;10.27;5.20;;;;;;;23.34;42.98;99771.19;5089231;28;20024;-32
2023/04/24 11:17:37;;;;;;;6.28;5.00;;;;;;;23.26;41.05;99765.38;5089030;28;20493;-33
2023/04/24 11:20:16;;;;;;;6.40;4.53;;;;;;;23.44;39.99;99760.06;5088932;28;20020;-33
2023/04/24 11:22:42;;;;;;;7.88;5.07;;;;;;;24.12;40.45;99751.69;5088994;28;20032;-32
2023/04/24 11:25:09;;;;;;;12.05;5.22;;;;;;;23.62;40.10;99744.59;5088657;28;20054;-32
2023/04/24 11:27:42;;;;;;;7.22;4.93;;;;;;;24.03;38.52;99727.94;5088903;28;20028;-32